Time;durP1;ratioP1;P1;durP2;ratioP2;P2;SDS_P1;SDS_P2;PMS_P1;PMS_P2;Temp;Humidity;BMP_temperature;BMP_pressure;BME280_temperature;BME280_humidity;BME280_pressure;Samples;Min_cycle;Max_cycle;Signal;HPM_P1;HPM_P2
2022/08/15 00:01:22;;;;;;;;;14.75;13.50;;;;;23.99;58.64;100295.41;5060515;28;45408;-61
2022/08/15 00:03:57;;;;;;;;;13.00;12.25;;;;;24.00;58.57;100295.19;5060735;28;45412;-61
2022/08/15 00:06:31;;;;;;;;;18.75;16.25;;;;;24.03;58.59;100299.38;5060842;28;45493;-61
2022/08/15 00:08:58;;;;;;;;;13.50;12.25;;;;;24.02;58.53;100297.72;5060871;28;45440;-61
2022/08/15 00:11:34;;;;;;;;;14.50;13.75;;;;;24.05;58.68;100297.34;5060380;28;45342;-61
2022/08/15 00:14:12;;;;;;;;;15.50;15.00;;;;;24.06;58.63;100297.13;5060559;28;45331;-61
2022/08/15 00:16:40;;;;;;;;;16.50;13.00;;;;;24.08;58.82;100288.88;5060687;28;45358;-61
2022/08/15 00:19:13;;;;;;;;;14.25;13.50;;;;;24.08;58.09;100286.19;5060549;28;45212;-61
2022/08/15 00:21:46;;;;;;;;;14.25;12.75;;;;;24.08;58.58;100292.41;5060578;28;46337;-61
2022/08/15 00:24:15;;;;;;;;;15.25;14.50;;;;;24.08;57.98;100288.88;5056551;28;45398;-61
2022/08/15 00:26:48;;;;;;;;;15.75;14.75;;;;;24.04;58.44;100285.75;5040182;28;45296;-61
2022/08/15 00:29:14;;;;;;;;;24.75;19.75;;;;;24.03;58.36;100296.69;5040422;28;45458;-61
2022/08/15 00:31:40;;;;;;;;;18.75;18.00;;;;;23.98;57.90;100291.88;5040285;28;46141;-61
2022/08/15 00:34:05;;;;;;;;;17.25;16.75;;;;;23.96;57.85;100291.22;5040139;28;45413;-61
2022/08/15 00:36:31;;;;;;;;;12.50;11.50;;;;;23.97;58.30;100294.75;5040349;28;45204;-61
2022/08/15 00:39:01;;;;;;;;;13.75;13.75;;;;;23.94;58.34;100283.34;5042492;28;45648;-61
2022/08/15 00:41:40;;;;;;;;;16.50;16.00;;;;;23.95;58.17;100286.88;5043418;28;45407;-61
2022/08/15 00:44:20;;;;;;;;;17.25;17.25;;;;;23.92;58.41;100282.69;5050922;28;45399;-61
2022/08/15 00:46:58;;;;;;;;;16.00;15.50;;;;;23.89;57.84;100283.06;5063607;28;45481;-61
2022/08/15 00:49:26;;;;;;;;;16.50;16.25;;;;;23.88;57.94;100280.59;5063798;28;45368;-61
2022/08/15 00:52:00;;;;;;;;;17.00;16.25;;;;;23.83;57.82;100280.31;5063329;28;45418;-61
2022/08/15 00:54:40;;;;;;;;;22.00;20.25;;;;;23.82;57.74;100278.63;5063450;28;45409;-61
2022/08/15 00:57:10;;;;;;;;;16.25;14.75;;;;;23.79;58.09;100287.09;5063513;28;45303;-61
2022/08/15 00:59:40;;;;;;;;;16.75;16.75;;;;;23.75;58.02;100283.94;5063698;28;45548;-61
2022/08/15 01:02:11;;;;;;;;;19.50;16.00;;;;;23.72;58.09;100275.41;5063519;28;45311;-61
2022/08/15 01:04:38;;;;;;;;;20.50;18.50;;;;;23.68;58.19;100280.31;5063255;28;45200;-61
2022/08/15 01:07:05;;;;;;;;;19.75;18.25;;;;;23.68;58.29;100281.16;5063565;28;45345;-61
2022/08/15 01:09:31;;;;;;;;;18.25;16.25;;;;;23.68;58.27;100286.53;5063347;28;45465;-61
2022/08/15 01:12:00;;;;;;;;;16.75;15.75;;;;;23.67;57.84;100276.78;5063457;28;45333;-61
2022/08/15 01:14:26;;;;;;;;;18.25;16.00;;;;;23.69;58.18;100287.34;5063264;28;45162;-61
2022/08/15 01:16:53;;;;;;;;;16.50;15.25;;;;;23.67;57.83;100284.88;5063311;28;45247;-61
2022/08/15 01:19:24;;;;;;;;;17.50;16.75;;;;;23.69;58.24;100284.66;5063227;28;45769;-61
2022/08/15 01:22:00;;;;;;;;;18.00;18.00;;;;;23.67;57.98;100279.50;5063309;28;45238;-61
2022/08/15 01:24:43;;;;;;;;;15.50;13.25;;;;;23.66;58.20;100277.00;5057748;28;45439;-61
2022/08/15 01:27:10;;;;;;;;;16.50;14.75;;;;;23.65;57.66;100278.84;5042839;28;45296;-61
2022/08/15 01:29:36;;;;;;;;;23.25;17.50;;;;;23.57;57.75;100264.63;5042981;28;45158;-61
2022/08/15 01:32:03;;;;;;;;;18.50;18.50;;;;;23.61;57.65;100282.91;5055365;28;45443;-61
2022/08/15 01:34:28;;;;;;;;;20.00;15.50;;;;;23.59;57.77;100278.72;5063384;28;45708;-61
2022/08/15 01:36:54;;;;;;;;;17.50;15.50;;;;;23.57;58.28;100284.28;5063072;28;45323;-61
2022/08/15 01:39:31;;;;;;;;;22.00;21.00;;;;;23.55;57.92;100285.50;5062952;28;45426;-62
2022/08/15 01:42:18;;;;;;;;;17.50;17.25;;;;;23.52;57.82;100275.94;5062898;28;45354;-61
2022/08/15 01:45:14;;;;;;;;;17.00;16.50;;;;;23.48;58.07;100276.50;5062896;28;45284;-61
2022/08/15 01:47:50;;;;;;;;;18.00;15.25;;;;;23.46;58.13;100279.41;5066114;28;45513;-61
2022/08/15 01:50:23;;;;;;;;;17.00;15.75;;;;;23.46;58.31;100276.72;5048150;28;45297;-61
2022/08/15 01:53:11;;;;;;;;;16.50;15.50;;;;;23.43;58.17;100277.06;5062741;28;45374;-61
2022/08/15 01:55:44;;;;;;;;;17.75;17.25;;;;;23.41;57.82;100273.72;5062551;28;45280;-61
2022/08/15 01:58:09;;;;;;;;;22.00;18.50;;;;;23.39;58.56;100275.78;5062705;28;45257;-61
2022/08/15 02:00:37;;;;;;;;;16.00;16.00;;;;;23.38;58.46;100266.00;5062941;28;45220;-61
2022/08/15 02:03:03;;;;;;;;;18.50;15.25;;;;;23.36;57.94;100262.69;5062534;28;45368;-61
2022/08/15 02:05:28;;;;;;;;;19.75;18.50;;;;;23.34;58.31;100262.88;5062697;28;45166;-61
2022/08/15 02:07:54;;;;;;;;;19.50;17.00;;;;;23.32;58.65;100264.94;5062811;28;45329;-61
2022/08/15 02:10:19;;;;;;;;;18.00;16.50;;;;;23.28;58.41;100258.25;5062455;28;45510;-61
2022/08/15 02:12:45;;;;;;;;;16.25;15.75;;;;;23.27;57.96;100261.94;5062339;28;45451;-61
2022/08/15 02:15:16;;;;;;;;;20.75;19.50;;;;;23.26;57.94;100259.44;5062328;28;45285;-61
2022/08/15 02:17:43;;;;;;;;;21.50;20.00;;;;;23.22;58.41;100260.81;5062479;28;45254;-61
2022/08/15 02:20:11;;;;;;;;;21.25;18.50;;;;;23.22;58.14;100252.75;5062498;28;45228;-61
2022/08/15 02:22:36;;;;;;;;;17.75;16.75;;;;;23.23;58.62;100246.41;5062184;28;45284;-61
2022/08/15 02:25:05;;;;;;;;;22.25;18.25;;;;;23.20;58.22;100255.66;5052226;28;45484;-61
2022/08/15 02:27:33;;;;;;;;;15.50;15.50;;;;;23.20;58.42;100250.28;5042161;28;45235;-61
2022/08/15 02:30:11;;;;;;;;;20.75;19.50;;;;;23.19;58.77;100250.47;5041092;28;45384;-61
2022/08/15 02:32:39;;;;;;;;;16.50;15.00;;;;;23.19;58.70;100256.66;5041785;28;46432;-61
2022/08/15 02:35:06;;;;;;;;;20.50;17.25;;;;;23.21;58.69;100251.09;5042096;28;45392;-61
2022/08/15 02:37:32;;;;;;;;;19.75;18.00;;;;;23.23;58.46;100251.78;5041937;28;45335;-61
2022/08/15 02:39:57;;;;;;;;;19.00;18.00;;;;;23.22;58.48;100250.06;5041965;28;45266;-61
2022/08/15 02:42:23;;;;;;;;;17.50;16.25;;;;;23.21;58.70;100248.41;5041689;28;45988;-61
2022/08/15 02:44:49;;;;;;;;;19.00;17.00;;;;;23.21;58.58;100246.56;5041995;28;45288;-61
2022/08/15 02:47:16;;;;;;;;;22.00;19.00;;;;;23.21;58.28;100241.19;5041647;28;45327;-61
2022/08/15 02:49:45;;;;;;;;;21.00;17.75;;;;;23.20;58.61;100242.22;5054850;28;45323;-61
2022/08/15 02:52:12;;;;;;;;;17.75;17.00;;;;;23.21;58.35;100248.41;5061650;28;46048;-61
2022/08/15 02:54:39;;;;;;;;;16.75;16.00;;;;;23.20;58.21;100234.16;5061564;28;45274;-61
2022/08/15 02:57:06;;;;;;;;;17.75;17.75;;;;;23.20;58.35;100236.84;5061924;28;45271;-61
2022/08/15 02:59:32;;;;;;;;;20.00;17.50;;;;;23.20;58.46;100238.69;5061689;28;45417;-61
2022/08/15 03:01:58;;;;;;;;;20.50;17.00;;;;;23.20;58.36;100228.78;5061140;28;45410;-61
2022/08/15 03:04:25;;;;;;;;;21.75;15.25;;;;;23.19;58.48;100235.16;5061677;28;45425;-61
2022/08/15 03:06:53;;;;;;;;;21.50;18.50;;;;;23.19;58.09;100224.41;5061889;28;45242;-61
2022/08/15 03:09:21;;;;;;;;;18.75;17.50;;;;;23.17;58.46;100231.84;5061610;28;45394;-61
2022/08/15 03:11:47;;;;;;;;;21.00;16.50;;;;;23.15;58.05;100230.38;5061526;28;45415;-61
2022/08/15 03:14:16;;;;;;;;;23.00;16.25;;;;;23.11;58.33;100227.19;5061460;28;45295;-61
2022/08/15 03:16:44;;;;;;;;;20.25;18.25;;;;;23.10;58.56;100222.84;5061514;28;45276;-61
2022/08/15 03:19:18;;;;;;;;;15.25;14.75;;;;;23.07;58.75;100225.91;5061530;28;45306;-61
2022/08/15 03:21:44;;;;;;;;;21.75;20.75;;;;;23.03;58.47;100221.91;5061272;28;47191;-61
2022/08/15 03:24:10;;;;;;;;;18.25;16.00;;;;;23.02;58.72;100225.63;5058351;28;45296;-61
2022/08/15 03:26:36;;;;;;;;;19.25;16.00;;;;;23.02;58.64;100233.69;5041237;28;45391;-61
2022/08/15 03:29:03;;;;;;;;;24.00;19.00;;;;;23.01;58.57;100226.66;5041258;28;45340;-61
2022/08/15 03:31:29;;;;;;;;;19.75;18.00;;;;;22.99;58.21;100232.22;5041039;28;46229;-61
2022/08/15 03:33:55;;;;;;;;;26.00;20.75;;;;;22.98;58.65;100222.44;5040931;28;45252;-61
2022/08/15 03:36:22;;;;;;;;;24.75;20.75;;;;;23.01;58.49;100226.66;5041271;28;45465;-61
2022/08/15 03:38:47;;;;;;;;;24.00;16.00;;;;;23.03;58.55;100221.91;5040960;28;45553;-61
2022/08/15 03:41:16;;;;;;;;;20.50;17.00;;;;;23.02;58.22;100223.75;5040903;28;45769;-61
2022/08/15 03:43:44;;;;;;;;;20.00;18.00;;;;;23.00;58.29;100225.81;5040677;28;45265;-61
2022/08/15 03:46:16;;;;;;;;;19.25;18.75;;;;;23.00;58.23;100230.34;5040980;28;45307;-61
2022/08/15 03:48:53;;;;;;;;;20.25;18.25;;;;;23.00;58.22;100230.34;5045434;28;45436;-61
2022/08/15 03:51:20;;;;;;;;;16.75;15.75;;;;;23.01;58.41;100223.97;5060928;28;45355;-61
2022/08/15 03:53:50;;;;;;;;;17.00;14.50;;;;;23.02;58.50;100223.75;5060874;28;45441;-61
2022/08/15 03:56:19;;;;;;;;;21.50;19.00;;;;;23.02;58.20;100220.25;5060835;28;45345;-61
2022/08/15 03:58:46;;;;;;;;;18.00;15.75;;;;;23.02;58.42;100218.41;5061072;28;45623;-61
2022/08/15 04:01:17;;;;;;;;;24.25;19.00;;;;;23.02;58.04;100218.41;5060612;28;45290;-61
2022/08/15 04:03:45;;;;;;;;;16.25;15.50;;;;;23.01;58.40;100216.72;5060546;28;45326;-61
2022/08/15 04:06:14;;;;;;;;;19.75;17.25;;;;;23.01;58.14;100218.59;5060774;28;45317;-62
2022/08/15 04:08:39;;;;;;;;;14.75;14.50;;;;;22.97;58.10;100212.72;5060953;28;45411;-61
2022/08/15 04:11:07;;;;;;;;;17.00;15.75;;;;;22.94;58.36;100210.41;5060575;28;45389;-61
2022/08/15 04:13:33;;;;;;;;;17.50;16.50;;;;;22.94;58.11;100201.53;5062535;28;45322;-61
2022/08/15 04:16:01;;;;;;;;;15.75;14.75;;;;;22.95;58.00;100205.88;5064404;28;45307;-61
2022/08/15 04:18:28;;;;;;;;;17.00;16.75;;;;;22.94;58.31;100199.69;5064454;28;45424;-61
2022/08/15 04:20:56;;;;;;;;;15.50;14.00;;;;;22.92;58.21;100199.03;5064233;28;45363;-61
2022/08/15 04:23:23;;;;;;;;;21.00;15.50;;;;;22.91;58.01;100200.06;5064284;28;45279;-61
2022/08/15 04:25:49;;;;;;;;;15.75;15.50;;;;;22.90;58.53;100194.84;5047895;28;45327;-61
2022/08/15 04:28:17;;;;;;;;;19.00;18.25;;;;;22.91;58.24;100196.50;5044195;28;45236;-61
2022/08/15 04:30:44;;;;;;;;;21.50;19.25;;;;;22.90;58.33;100193.00;5043667;28;45389;-61
2022/08/15 04:33:16;;;;;;;;;16.50;14.25;;;;;22.88;58.04;100192.34;5043977;28;45312;-61
2022/08/15 04:35:51;;;;;;;;;19.75;17.75;;;;;22.84;58.05;100194.56;5043910;28;45302;-61
2022/08/15 04:38:17;;;;;;;;;18.50;16.25;;;;;22.83;58.44;100200.94;5043926;28;45348;-61
2022/08/15 04:40:44;;;;;;;;;20.00;17.50;;;;;22.82;58.15;100207.31;5043392;28;45391;-61
2022/08/15 04:43:10;;;;;;;;;18.25;16.25;;;;;22.82;58.35;100204.63;5043860;28;45359;-61
2022/08/15 04:45:38;;;;;;;;;18.00;18.00;;;;;22.81;58.37;100205.63;5043698;28;45438;-62
2022/08/15 04:48:04;;;;;;;;;17.50;16.00;;;;;22.77;58.16;100204.34;5043861;28;45235;-61
2022/08/15 04:50:35;;;;;;;;;16.75;16.00;;;;;22.76;58.06;100200.00;5063333;28;45405;-61
2022/08/15 04:53:02;;;;;;;;;15.25;13.25;;;;;22.77;58.40;100203.53;5063807;28;45402;-61
2022/08/15 04:55:28;;;;;;;;;15.75;15.75;;;;;22.76;57.94;100197.31;5063530;28;45314;-61
2022/08/15 04:57:55;;;;;;;;;17.00;15.75;;;;;22.76;58.41;100196.50;5063729;28;45309;-61
2022/08/15 05:00:25;;;;;;;;;22.25;15.00;;;;;22.77;58.26;100195.47;5063455;28;45367;-61
2022/08/15 05:03:06;;;;;;;;;13.00;13.00;;;;;22.78;58.19;100197.13;5063522;28;45439;-61
2022/08/15 05:05:34;;;;;;;;;15.00;14.25;;;;;22.78;58.04;100189.91;5063802;28;45437;-62
2022/08/15 05:08:00;;;;;;;;;19.50;16.50;;;;;22.80;58.27;100187.03;5063794;28;45255;-61
2022/08/15 05:10:27;;;;;;;;;15.50;14.00;;;;;22.81;57.79;100183.31;5061984;28;46695;-62
2022/08/15 05:12:52;;;;;;;;;21.25;18.50;;;;;22.82;57.92;100182.31;5063421;28;45322;-61
2022/08/15 05:15:19;;;;;;;;;18.25;18.25;;;;;22.84;58.08;100180.28;5063252;28;45497;-61
2022/08/15 05:17:47;;;;;;;;;18.75;17.00;;;;;22.83;57.92;100181.31;5063581;28;45638;-62
2022/08/15 05:20:14;;;;;;;;;17.25;15.25;;;;;22.81;58.38;100176.09;5063173;28;46208;-61
2022/08/15 05:23:05;;;;;;;;;20.00;18.50;;;;;22.81;58.15;100169.91;5063275;28;45284;-61
2022/08/15 05:25:32;;;;;;;;;20.50;15.25;;;;;22.80;58.35;100171.75;5049098;28;45372;-61
2022/08/15 05:27:59;;;;;;;;;22.25;21.00;;;;;22.81;58.09;100170.72;5043304;28;45767;-62
2022/08/15 05:30:25;;;;;;;;;20.00;18.50;;;;;22.82;58.20;100169.72;5042913;28;46210;-61
2022/08/15 05:33:11;;;;;;;;;18.00;15.25;;;;;22.84;58.33;100174.91;5043210;28;45305;-62
2022/08/15 05:35:41;;;;;;;;;16.50;15.25;;;;;22.86;58.33;100172.06;5042871;28;45643;-61
2022/08/15 05:38:14;;;;;;;;;18.00;16.50;;;;;22.87;58.45;100169.19;5043039;28;45431;-62
2022/08/15 05:41:08;;;;;;;;;22.75;19.50;;;;;22.88;58.36;100168.19;5042589;28;46291;-61
2022/08/15 05:44:01;;;;;;;;;17.75;17.00;;;;;22.88;58.33;100164.66;5042705;28;45285;-61
2022/08/15 05:46:26;;;;;;;;;20.25;18.75;;;;;22.91;58.42;100172.34;5054239;28;45288;-61
2022/08/15 05:49:03;;;;;;;;;18.25;18.00;;;;;22.93;58.30;100165.78;5062908;28;45521;-62
2022/08/15 05:51:55;;;;;;;;;18.50;17.75;;;;;22.98;58.46;100171.41;5062585;28;45222;-62
2022/08/15 05:54:46;;;;;;;;;17.25;16.50;;;;;23.04;58.01;100172.53;5057533;28;45315;-62
2022/08/15 05:57:49;;;;;;;;;19.25;17.00;;;;;23.06;58.16;100170.47;5063137;28;45488;-62
2022/08/15 06:00:15;;;;;;;;;21.50;19.25;;;;;23.10;58.09;100169.94;5024089;28;45691;-61
2022/08/15 06:03:08;;;;;;;;;22.25;17.50;;;;;23.16;58.36;100181.81;5055601;28;45294;-61
2022/08/15 06:05:39;;;;;;;;;24.25;22.25;;;;;23.22;58.59;100181.03;5062630;28;45342;-61
2022/08/15 06:08:14;;;;;;;;;21.50;19.00;;;;;23.27;58.22;100177.81;5062630;28;45391;-61
2022/08/15 06:10:46;;;;;;;;;19.00;17.75;;;;;23.33;57.92;100191.34;5062464;28;45330;-61
2022/08/15 06:13:19;;;;;;;;;18.25;17.00;;;;;23.39;58.24;100187.06;5062257;28;45290;-61
2022/08/15 06:16:06;;;;;;;;;17.75;17.75;;;;;23.41;57.97;100193.09;5062340;28;45433;-62
2022/08/15 06:18:35;;;;;;;;;20.75;18.00;;;;;23.45;57.86;100191.69;5062537;28;45227;-62
2022/08/15 06:21:07;;;;;;;;;19.50;17.75;;;;;23.49;57.58;100184.09;5062327;28;45378;-61
2022/08/15 06:23:47;;;;;;;;;19.50;16.25;;;;;23.54;57.46;100184.34;5061935;28;46179;-62
2022/08/15 06:26:22;;;;;;;;;26.25;17.00;;;;;23.59;57.11;100179.22;5048830;28;45376;-61
2022/08/15 06:29:12;;;;;;;;;19.50;18.00;;;;;23.64;56.92;100179.53;5058887;28;45279;-61
2022/08/15 06:31:44;;;;;;;;;22.25;19.25;;;;;23.72;56.80;100182.13;5062282;28;45264;-62
2022/08/15 06:34:24;;;;;;;;;17.00;14.75;;;;;23.80;56.68;100183.84;5057247;28;47817;-62
2022/08/15 06:36:56;;;;;;;;;17.50;16.50;;;;;23.89;56.73;100172.78;5055261;28;45349;-62
2022/08/15 06:39:57;;;;;;;;;18.25;15.75;;;;;24.00;56.87;100175.97;5062149;28;45417;-61
2022/08/15 06:42:34;;;;;;;;;16.25;15.00;;;;;24.11;56.24;100172.78;5062228;28;45306;-61
2022/08/15 06:45:07;;;;;;;;;17.00;16.50;;;;;24.15;55.85;100176.75;5061832;28;45162;-61
2022/08/15 06:47:33;;;;;;;;;19.50;16.25;;;;;24.18;55.61;100171.00;5062006;28;45254;-62
2022/08/15 06:50:13;;;;;;;;;13.50;11.50;;;;;24.24;56.19;100170.22;5061921;28;45335;-62
2022/08/15 06:52:45;;;;;;;;;19.00;16.50;;;;;24.27;55.78;100174.38;5062176;28;45308;-62
2022/08/15 06:55:10;;;;;;;;;19.75;18.50;;;;;24.29;55.43;100172.34;5061521;28;46103;-62
2022/08/15 06:57:54;;;;;;;;;17.00;17.00;;;;;24.32;55.08;100175.47;5061834;28;45219;-61
2022/08/15 07:00:33;;;;;;;;;21.00;17.25;;;;;24.32;55.68;100167.41;5061569;28;45215;-62
2022/08/15 07:03:20;;;;;;;;;20.00;17.25;;;;;24.38;55.44;100171.19;5061783;28;45173;-62
2022/08/15 07:05:51;;;;;;;;;19.00;16.25;;;;;24.41;55.48;100168.97;5061481;28;45366;-62
2022/08/15 07:08:25;;;;;;;;;18.50;15.25;;;;;24.46;54.90;100177.25;5061549;28;45259;-62
2022/08/15 07:11:14;;;;;;;;;17.50;15.25;;;;;24.46;55.12;100179.13;5061653;28;45237;-62
2022/08/15 07:14:07;;;;;;;;;18.00;16.25;;;;;24.44;54.98;100173.13;5055019;28;45490;-62
2022/08/15 07:16:48;;;;;;;;;22.25;19.25;;;;;24.46;54.91;100173.75;5061304;28;45522;-62
2022/08/15 07:19:14;;;;;;;;;20.25;15.75;;;;;24.47;54.56;100178.09;5061254;28;45349;-61
2022/08/15 07:21:40;;;;;;;;;18.50;15.50;;;;;24.46;54.45;100171.88;5061542;28;45249;-60
2022/08/15 07:24:06;;;;;;;;;20.00;15.50;;;;;24.49;54.49;100178.75;5059304;28;45220;-59
2022/08/15 07:26:46;;;;;;;;;16.25;16.25;;;;;24.46;54.44;100184.50;5048104;28;46835;-60
2022/08/15 07:29:17;;;;;;;;;14.25;14.25;;;;;24.47;54.57;100186.19;5061201;28;45437;-61
2022/08/15 07:31:44;;;;;;;;;15.75;13.00;;;;;24.48;54.38;100188.66;5061205;28;45272;-61
2022/08/15 07:34:19;;;;;;;;;13.00;13.00;;;;;24.49;54.24;100190.34;5061208;28;45291;-61
2022/08/15 07:37:00;;;;;;;;;20.50;17.50;;;;;24.50;54.70;100188.50;5061494;28;45338;-61
2022/08/15 07:39:35;;;;;;;;;15.00;15.00;;;;;24.48;54.42;100182.44;5060849;28;45231;-61
2022/08/15 07:42:18;;;;;;;;;16.00;15.75;;;;;24.51;54.74;100187.47;5061207;28;45181;-61
2022/08/15 07:44:54;;;;;;;;;17.00;15.00;;;;;24.56;54.56;100182.31;5061240;28;45489;-61
2022/08/15 07:47:24;;;;;;;;;13.75;13.00;;;;;24.56;54.39;100185.00;5059496;28;46253;-61
2022/08/15 07:49:59;;;;;;;;;11.00;11.00;;;;;24.60;54.36;100183.59;5060851;28;45466;-62
2022/08/15 07:52:26;;;;;;;;;14.00;12.75;;;;;24.63;54.25;100187.75;5061137;28;45518;-61
2022/08/15 07:54:55;;;;;;;;;12.50;12.50;;;;;24.65;54.18;100181.16;5060723;28;45301;-61
2022/08/15 07:57:33;;;;;;;;;12.25;10.25;;;;;24.67;53.94;100183.66;5061003;28;46146;-61
2022/08/15 08:00:11;;;;;;;;;14.00;11.75;;;;;24.66;53.10;100182.00;5060537;28;45218;-61
2022/08/15 08:02:42;;;;;;;;;9.75;9.00;;;;;24.66;53.15;100180.13;5060874;28;45290;-62
2022/08/15 08:05:10;;;;;;;;;9.75;8.75;;;;;24.68;52.74;100185.31;5060725;28;45608;-61
2022/08/15 08:07:40;;;;;;;;;13.50;10.75;;;;;24.66;52.76;100182.81;5060725;28;46236;-62
2022/08/15 08:10:15;;;;;;;;;8.25;7.75;;;;;24.70;52.64;100184.06;5060725;28;45277;-61
2022/08/15 08:13:06;;;;;;;;;13.25;10.00;;;;;24.70;52.86;100178.69;5060809;28;45278;-61
2022/08/15 08:15:48;;;;;;;;;11.25;10.00;;;;;24.68;52.47;100175.38;5060703;28;45299;-61
2022/08/15 08:18:31;;;;;;;;;14.25;13.25;;;;;24.67;52.06;100172.88;5060524;28;45598;-62
2022/08/15 08:21:03;;;;;;;;;12.00;12.00;;;;;24.65;52.34;100174.94;5060632;28;45194;-62
2022/08/15 08:23:38;;;;;;;;;12.75;11.50;;;;;24.65;52.89;100178.47;5060591;27;45339;-61
2022/08/15 08:26:31;;;;;;;;;8.00;8.00;;;;;24.66;52.95;100177.44;5041682;28;45320;-62
2022/08/15 08:29:09;;;;;;;;;10.25;9.75;;;;;24.64;52.31;100186.72;5040323;28;45370;-62
2022/08/15 08:32:04;;;;;;;;;8.00;7.50;;;;;24.56;52.42;100190.38;5040229;28;45174;-62
2022/08/15 08:34:42;;;;;;;;;13.00;10.00;;;;;24.62;52.45;100191.47;5048696;28;45547;-62
2022/08/15 08:37:23;;;;;;;;;12.25;10.50;;;;;24.67;52.63;100191.72;5060546;28;45588;-61
2022/08/15 08:41:24;;;;;;;;;15.25;12.75;;;;;24.73;52.39;100182.88;5060250;28;45422;-61
2022/08/15 08:42:59;;;;;;;;;8.50;8.50;;;;;24.77;52.92;100187.66;5060334;28;45229;-62
2022/08/15 08:45:42;;;;;;;;;11.00;11.00;;;;;24.81;52.43;100189.97;5060282;28;45264;-62
2022/08/15 08:48:34;;;;;;;;;9.50;9.50;;;;;24.76;52.69;100187.84;5060265;28;45458;-62
2022/08/15 08:51:24;;;;;;;;;10.50;8.25;;;;;24.72;52.35;100175.78;5050369;28;46085;-62
2022/08/15 08:54:06;;;;;;;;;14.75;10.75;;;;;24.73;52.47;100178.31;5059923;28;45268;-62
2022/08/15 08:56:38;;;;;;;;;13.50;12.00;;;;;24.76;52.77;100179.78;5060257;28;45434;-62
2022/08/15 08:59:18;;;;;;;;;11.25;10.25;;;;;24.75;52.82;100168.16;5061308;28;45315;-62
2022/08/15 09:01:48;;;;;;;;;12.50;9.00;;;;;24.75;52.27;100184.34;5063232;28;45458;-61
2022/08/15 09:04:18;;;;;;;;;9.00;9.00;;;;;24.75;52.50;100178.94;5063585;28;45311;-62
2022/08/15 09:06:47;;;;;;;;;9.25;9.25;;;;;24.77;52.51;100184.13;5063449;28;45357;-62
2022/08/15 09:09:32;;;;;;;;;14.25;11.50;;;;;24.90;53.10;100180.72;5063311;28;45679;-61
2022/08/15 09:12:03;;;;;;;;;9.25;8.25;;;;;25.07;52.39;100190.16;5063408;28;45374;-62
2022/08/15 09:14:35;;;;;;;;;12.50;10.25;;;;;25.19;52.22;100191.25;5062017;28;45322;-62
2022/08/15 09:17:10;;;;;;;;;12.00;10.00;;;;;25.35;52.43;100195.47;5063465;28;45343;-62
2022/08/15 09:19:51;;;;;;;;;14.75;10.75;;;;;25.48;51.67;100192.84;5063284;28;45199;-62
2022/08/15 09:22:17;;;;;;;;;11.75;9.00;;;;;25.48;51.98;100200.09;5063146;28;46653;-62
2022/08/15 09:24:43;;;;;;;;;10.50;10.00;;;;;25.57;51.84;100188.09;5053824;28;45379;-62
2022/08/15 09:27:22;;;;;;;;;9.00;7.75;;;;;25.53;51.29;100186.88;5043113;28;45326;-62
2022/08/15 09:30:18;;;;;;;;;9.00;9.00;;;;;25.41;51.11;100191.16;5043352;28;45228;-62
2022/08/15 09:32:55;;;;;;;;;10.25;10.25;;;;;25.28;51.24;100189.25;5044821;28;46238;-62
2022/08/15 09:35:23;;;;;;;;;9.00;8.75;;;;;25.19;51.18;100185.03;5063264;28;45454;-62
2022/08/15 09:37:52;;;;;;;;;11.00;9.00;;;;;25.18;50.92;100186.06;5063037;28;45340;-62
2022/08/15 09:40:28;;;;;;;;;10.75;8.75;;;;;25.19;50.77;100183.16;5062839;28;45214;-62
2022/08/15 09:43:30;;;;;;;;;13.50;10.75;;;;;25.34;51.22;100191.13;5062861;28;45248;-62
2022/08/15 09:46:21;;;;;;;;;12.00;10.50;;;;;25.45;50.88;100192.44;5062859;28;45177;-62
2022/08/15 09:48:50;;;;;;;;;15.75;9.50;;;;;25.42;50.95;100185.56;5062755;28;45302;-62
2022/08/15 09:51:46;;;;;;;;;8.00;7.00;;;;;25.43;51.34;100189.91;5062761;28;45595;-62
2022/08/15 09:54:22;;;;;;;;;9.00;9.00;;;;;25.41;51.23;100189.28;5062437;28;45616;-62
2022/08/15 09:56:50;;;;;;;;;12.50;12.00;;;;;25.36;51.01;100182.81;5062800;28;45193;-62
2022/08/15 09:59:20;;;;;;;;;15.25;11.25;;;;;25.31;50.69;100181.59;5062581;28;45364;-62
2022/08/15 10:01:59;;;;;;;;;10.50;10.00;;;;;25.41;51.08;100189.28;5061171;28;45249;-62
2022/08/15 10:04:47;;;;;;;;;9.00;8.25;;;;;25.70;50.98;100190.03;5062470;28;45542;-61
2022/08/15 10:07:13;;;;;;;;;12.00;9.50;;;;;25.70;51.35;100192.72;5043055;28;45478;-62
2022/08/15 10:09:44;;;;;;;;;8.75;7.00;;;;;25.68;51.21;100192.09;5062263;28;45922;-62
2022/08/15 10:12:09;;;;;;;;;8.00;7.75;;;;;25.60;50.64;100187.72;5062023;28;45347;-61
2022/08/15 10:14:39;;;;;;;;;8.00;8.00;;;;;25.58;50.92;100184.38;5057566;28;45819;-62
2022/08/15 10:17:25;;;;;;;;;7.25;5.50;;;;;25.58;51.11;100187.06;5053773;28;45282;-61
2022/08/15 10:19:51;;;;;;;;;7.00;5.75;;;;;25.58;50.87;100184.38;5057772;28;45271;-61
2022/08/15 10:22:22;;;;;;;;;4.75;4.75;;;;;25.54;51.26;100183.13;5056410;28;45349;-61
2022/08/15 10:25:25;;;;;;;;;5.25;4.00;;;;;25.48;50.97;100186.63;5053485;28;45438;-62
2022/08/15 10:27:59;;;;;;;;;7.75;5.00;;;;;25.44;51.04;100186.22;5048972;28;45371;-61
2022/08/15 10:30:30;;;;;;;;;4.75;4.00;;;;;25.50;51.39;100187.25;5062155;28;45283;-61
2022/08/15 10:32:57;;;;;;;;;5.25;4.25;;;;;25.53;51.28;100186.88;5062230;28;45476;-61
2022/08/15 10:35:31;;;;;;;;;3.75;3.25;;;;;25.55;51.68;100185.63;5062001;28;45344;-62
2022/08/15 10:38:03;;;;;;;;;3.00;3.00;;;;;25.60;51.82;100183.16;5062370;28;45232;-62
2022/08/15 10:40:53;;;;;;;;;3.50;3.00;;;;;25.66;51.42;100194.16;5061721;28;45334;-62
2022/08/15 10:43:27;;;;;;;;;3.00;3.00;;;;;25.62;52.02;100185.66;5060813;28;45267;-62
2022/08/15 10:45:59;;;;;;;;;5.00;4.25;;;;;25.54;51.84;100208.22;5061648;28;46352;-62
2022/08/15 10:49:15;;;;;;;;;4.50;4.50;;;;;25.44;51.72;100199.69;5061530;28;45322;-61
2022/08/15 10:51:46;;;;;;;;;4.75;4.75;;;;;25.36;52.07;100202.56;5038289;28;45261;-61
2022/08/15 10:54:45;;;;;;;;;5.00;4.00;;;;;25.32;51.99;100198.59;5061517;28;45326;-61
2022/08/15 10:57:16;;;;;;;;;8.00;7.75;;;;;25.25;51.88;100192.31;5061864;28;45318;-61
2022/08/15 10:59:48;;;;;;;;;7.00;5.50;;;;;25.20;52.20;100192.09;5061610;28;45434;-62
2022/08/15 11:02:19;;;;;;;;;9.25;8.00;;;;;25.20;52.14;100189.38;5061864;28;45383;-62
2022/08/15 11:04:45;;;;;;;;;5.50;5.50;;;;;25.19;52.31;100196.63;5061528;28;45212;-62
2022/08/15 11:07:29;;;;;;;;;7.75;6.75;;;;;25.21;52.59;100189.22;5061578;28;46211;-62
2022/08/15 11:09:59;;;;;;;;;8.25;6.75;;;;;25.24;52.19;100186.09;5061242;28;45214;-62
2022/08/15 11:12:30;;;;;;;;;7.00;6.00;;;;;25.24;52.34;100193.34;5061531;28;45368;-61
2022/08/15 11:15:00;;;;;;;;;19.00;18.75;;;;;25.24;51.90;100194.19;5061394;28;45153;-61
2022/08/15 11:17:30;;;;;;;;;2.75;2.75;;;;;25.27;51.75;100185.69;5061347;28;46257;-62
2022/08/15 11:20:15;;;;;;;;;10.50;9.00;;;;;25.28;52.18;100191.94;5061415;28;45388;-61
2022/08/15 11:22:54;;;;;;;;;3.50;3.50;;;;;25.23;51.99;100194.41;5061219;28;45236;-61
2022/08/15 11:25:24;;;;;;;;;4.00;4.00;;;;;25.22;51.83;100198.97;5047020;27;45287;-64
2022/08/15 11:28:18;;;;;;;;;5.00;5.00;;;;;25.20;52.30;100197.47;5039842;28;45417;-61
2022/08/15 11:30:44;;;;;;;;;4.50;3.75;;;;;25.18;51.99;100203.06;5040972;28;45497;-61
2022/08/15 11:33:24;;;;;;;;;6.00;5.00;;;;;25.13;52.44;100199.31;5041198;28;45251;-62
2022/08/15 11:36:05;;;;;;;;;7.00;7.00;;;;;25.12;52.27;100203.03;5047834;28;45477;-62
2022/08/15 11:38:34;;;;;;;;;5.00;5.00;;;;;25.12;52.53;100198.50;5061030;28;46329;-62
2022/08/15 11:41:00;;;;;;;;;5.75;4.00;;;;;25.12;52.13;100203.88;5060851;28;45326;-62